WETTERDATEN

HEUTE
Time Temp. Taup. r.Fe. Windrich Windstärke Windböe Druck 1h Prec. 24h Prec.
00:02 12.9 8.4 74 270 0.3 1.1 1005.9 0.0000 0.0000
00:11 12.9 8.4 74 270 0.3 0.8 1006.2 0.0000 0.0000
00:22 12.8 8.3 74 270 0.3 1.1 1006.2 0.0000 0.0000
00:32 12.8 8.3 74 270 0.3 1.1 1006 0.1000 0.1000
00:42 12.7 8.2 74 270 0.3 1.1 1006.1 0.1000 0.1000
00:52 12.7 8.2 74 270 0.3 1.1 1006.1 0.1000 0.1000
01:02 12.6 8.1 74 270 0.3 0.8 1006.1 0.1000 0.1000
01:12 12.5 8 74 270 0.3 1.1 1006.2 0.1000 0.1000
01:22 12.5 8 74 270 0.3 1.1 1006.1 0.1000 0.1000
01:32 12.4 7.9 74 270 0.3 0.8 1006.2 0.0000 0.1000
01:42 12.2 7.7 74 270 0.3 1.1 1006.3 0.0000 0.1000
01:52 12.1 7.6 74 270 0.3 0.8 1006.2 0.0000 0.1000
02:02 12 7.5 74 270 0.3 1.1 1006.4 0.0000 0.1000
02:13 12 7.5 74 270 0.3 1.1 1006.5 0.0000 0.1000
02:23 11.9 7.4 74 305 0.3 1.1 1006.4 0.0000 0.1000
02:32 11.9 7.4 74 270 0.3 1.1 1006.5 0.0000 0.1000
02:42 11.8 7.3 74 270 0.3 1.1 1006.7 0.0000 0.1000
02:53 11.8 7.3 74 270 0.3 1.1 1006.7 0.0000 0.1000
03:03 11.8 7.3 74 270 0.3 0.8 1006.7 0.0000 0.1000
03:13 11.8 7.3 74 270 0.3 0.8 1006.6 0.0000 0.1000
03:23 11.7 7.2 74 270 0.3 1.1 1006.7 0.0000 0.1000
03:33 11.7 7.2 74 270 0.3 1.4 1006.7 0.0000 0.1000
03:43 11.7 7.2 74 270 0.3 1.1 1006.9 0.0000 0.1000
03:53 11.6 7.1 74 270 0.3 1.1 1006.8 0.0000 0.1000
04:04 11.6 7.1 74 270 0.3 1.1 1007 0.0000 0.1000
04:13 11.6 7.1 74 270 0.3 1.1 1006.9 0.0000 0.1000
04:23 11.6 7.1 74 270 0.3 1.1 1006.9 0.0000 0.1000
04:34 11.5 7 74 270 0.3 1.1 1006.9 0.0000 0.1000
04:44 11.5 7 74 270 0.3 0.8 1006.9 0.0000 0.1000
04:53 11.5 7 74 270 0.3 0.8 1006.9 0.0000 0.1000
05:03 11.5 7 74 270 0.3 1.1 1006.9 0.0000 0.1000
05:14 11.5 7 74 270 0.3 0.8 1007 0.0000 0.1000
05:24 11.5 7 74 270 0.3 1.1 1006.9 0.0000 0.1000
05:34 11.5 7.2 75 270 0.3 0.8 1006.8 0.0000 0.1000
05:44 11.4 7.1 75 270 0.3 0.8 1006.9 0.0000 0.1000
05:54 11.4 7.1 75 270 0.3 0.8 1007.1 0.0000 0.1000
06:04 11.4 7.1 75 302 0.3 0.8 1007 0.0000 0.1000
06:14 11.3 7 75 270 0.3 0.8 1007 0.0000 0.1000
06:25 11.3 7 75 270 0.3 0.8 1007 0.0000 0.1000
06:34 11.3 7 75 270 0.3 0.8 1007.1 0.0000 0.1000
06:44 11.3 7 75 270 0.3 1.1 1007.1 0.0000 0.1000
06:55 11.3 7 75 270 0.3 1.1 1007.2 0.0000 0.1000
07:05 11.4 7.1 75 304 0.3 1.1 1007.2 0.0000 0.1000
07:14 11.5 7.2 75 270 0.3 0.8 1007.2 0.0000 0.1000
07:24 11.5 7.2 75 270 0.3 0.8 1007.2 0.0000 0.1000
07:35 11.6 7.3 75 270 0.3 0.8 1007.2 0.0000 0.1000
07:45 11.7 7.4 75 270 0.3 0.8 1007.4 0.0000 0.1000
07:55 11.8 7.5 75 270 0.3 1.4 1007.5 0.0000 0.1000
08:05 11.9 7.6 75 270 0.3 0.8 1007.4 0.0000 0.1000
08:15 12 7.7 75 270 0.3 1.4 1007.5 0.0000 0.1000
08:25 12.1 7.6 74 270 0.3 1.1 1007.4 0.0000 0.1000
08:35 12.2 7.7 74 270 0.3 1.4 1007.6 0.0000 0.1000
08:45 12.4 7.7 73 270 0.3 1.4 1007.7 0.0000 0.1000
08:55 12.6 7.9 73 270 0.3 2.2 1007.5 0.0000 0.1000
09:05 12.9 8.2 73 258 0.8 1.4 1007.8 0.0000 0.1000
09:16 13 8.1 72 283 0.8 1.4 1007.7 0.0000 0.1000
09:26 13.1 8 71 253 0.8 1.4 1007.6 0.0000 0.1000
09:35 13.3 8.2 71 270 0.3 1.1 1007.7 0.0000 0.1000
09:45 13.5 8.1 70 270 0.8 2.5 1007.8 0.0000 0.1000
09:56 13.8 8.4 70 255 0.8 1.4 1007.8 0.0000 0.1000
10:06 14 8.4 69 253 0.8 1.4 1007.7 0.0000 0.1000
10:16 14.3 8.5 68 270 0.3 1.4 1007.7 0.0000 0.1000
10:26 14.5 8.7 68 251 0.8 1.4 1007.8 0.0000 0.1000
10:36 14.8 9 68 270 0.3 1.9 1007.5 0.0000 0.1000
10:46 15.2 9.1 67 270 0.3 1.4 1007.5 0.0000 0.1000
10:56 15.5 9.2 66 270 0.3 1.4 1007.4 0.0000 0.1000
11:07 15.9 9.6 66 270 0.8 1.4 1007.3 0.0000 0.1000
11:16 16 9.4 65 239 0.8 2.2 1007.4 0.0000 0.1000
11:26 16.3 9.7 65 246 0.8 2.5 1007.5 0.0000 0.1000
11:36 16.3 9.5 64 270 0.8 1.9 1007.3 0.0000 0.1000
11:47 16.1 9.1 63 253 0.8 2.2 1007.3 0.0000 0.1000
11:56 16.3 9.5 64 270 0.3 2.2 1007.3 0.0000 0.1000
12:06 16.9 9.8 63 250 0.8 3.1 1007.4 0.0000 0.1000
12:17 17 9.7 62 251 0.8 1.9 1007.4 0.0000 0.1000
12:27 17.1 9.5 61 251 0.8 2.2 1007.1 0.0000 0.1000
12:37 17 9.2 60 251 0.8 1.4 1007.1 0.0000 0.1000
12:47 16.9 9.1 60 270 0.8 2.2 1007.1 0.0000 0.1000
12:57 17 9.2 60 245 0.8 2.2 1007 0.0000 0.1000
13:07 17.2 9.1 59 252 0.8 2.2 1006.9 0.0000 0.1000
13:17 17.7 9.6 59 254 0.8 1.9 1006.8 0.0000 0.1000
13:27 18 9.6 58 244 0.8 2.2 1006.8 0.0000 0.1000
13:37 18.4 9.7 57 246 0.8 2.2 1006.6 0.0000 0.1000
13:47 18.4 9.5 56 255 0.8 1.9 1006.7 0.0000 0.1000
13:57 18.5 9 54 246 0.8 2.2 1006.6 0.0000 0.1000
14:08 18.7 9.2 54 251 0.8 2.2 1006.5 0.0000 0.1000
14:17 18.7 9.2 54 259 0.8 2.2 1006.4 0.0000 0.1000
14:27 18.6 9.1 54 252 0.8 1.9 1006.3 0.0000 0.1000
14:38 18.8 9.3 54 242 0.8 1.9 1006.1 0.0000 0.1000
14:48 18.8 9 53 250 0.8 2.5 1006.2 0.0000 0.1000
14:58 18.4 8.4 52 315 0.8 1.9 1006.2 0.0000 0.1000
15:07 18.2 8.2 52 270 0.3 1.4 1006.3 0.0000 0.1000
15:18 18.2 8.5 53 270 0.3 1.4 1006.3 0.0000 0.1000
15:28 18.3 8.3 52 270 0.3 1.4 1006.1 0.0000 0.1000

TAGESSTATISTIK

2021-05-12
TEMPERATUR
MITTEL
13.8
MAXIMUM
18.8
14:38
MINIMUM
11.3
06:14
LUFTDRUCK
MITTEL
1006.9
MAXIMUM
1007.8
09:05
MINIMUM
1005.9
00:02
TAUPUNKT
MITTEL
8.1
MAXIMUM
9.8
12:06
MINIMUM
7.0
04:34
FEUCHTIGKEIT
MITTEL
69
MAXIMUM
75
05:34
MINIMUM
52
14:58
WINDSTÄRKE
MITTEL
0.5
MAXIMUM
0.8
09:05
WINDBÖE
MITTEL
1.4
MAXIMUM
3.1
12:06
WINDRICHTUNG
VORHERRSCHENDE
W
88.2%
N
0.0
NO
0.0
O
0.0
SO
0.0
S
0.0
SW
7.5
W
88.2
NW
4.3
NIEDERSCHLAG
REGEN STUNDE
0.1
REGEN TAG
0.1
TEMPERATUR (°C)
MINIMUM
11.3
MAXIMUM
18.8
MITTEL
13.8
LUFTDRUCK (hpa)
MINIMUM
1005.9
MAXIMUM
1007.8
MITTEL
1006.9
MESSGERÄT